Time;durP1;ratioP1;P1;durP2;ratioP2;P2;SDS_P1;SDS_P2;PMS_P1;PMS_P2;Temp;Humidity;BMP_temperature;BMP_pressure;BME280_temperature;BME280_humidity;BME280_pressure;Samples;Min_cycle;Max_cycle;Signal;HPM_P1;HPM_P2
2023/09/25 00:04:17;;;;;;;0.00;0.00;;;;;;;17.24;100.00;102147.75;10434100;28;20041;-82
2023/09/25 00:09:19;;;;;;;0.10;0.10;;;;;;;17.25;100.00;102146.91;10424373;28;20058;-81
2023/09/25 00:14:21;;;;;;;0.00;0.00;;;;;;;17.12;100.00;102140.63;10438662;28;20476;-82
2023/09/25 00:19:22;;;;;;;0.13;0.03;;;;;;;16.90;100.00;102140.16;10432208;28;20092;-82
2023/09/25 00:24:24;;;;;;;0.00;0.00;;;;;;;17.50;100.00;102147.34;10432347;28;20399;-82
2023/09/25 00:29:26;;;;;;;0.22;0.10;;;;;;;16.96;100.00;102155.03;10412818;28;20041;-82
2023/09/25 00:34:28;;;;;;;0.20;0.20;;;;;;;16.94;100.00;102164.56;10416729;28;20072;-82
2023/09/25 00:39:29;;;;;;;0.10;0.10;;;;;;;17.25;100.00;102157.31;10380897;28;20125;-82
2023/09/25 00:44:31;;;;;;;0.13;0.13;;;;;;;16.89;100.00;102171.34;10397992;28;20053;-82
2023/09/25 00:49:33;;;;;;;0.00;0.00;;;;;;;16.91;100.00;102167.06;10420716;28;20473;-82
2023/09/25 00:54:36;;;;;;;0.00;0.00;;;;;;;16.30;100.00;102163.22;10400159;28;20409;-82
2023/09/25 00:59:43;;;;;;;0.10;0.10;;;;;;;16.68;100.00;102159.66;10410711;28;20053;-82
2023/09/25 01:04:46;;;;;;;0.57;0.10;;;;;;;16.66;100.00;102161.34;10402259;28;20573;-82
2023/09/25 01:10:16;;;;;;;0.00;0.00;;;;;;;16.45;100.00;102157.47;10407291;28;20057;-83
2023/09/25 01:15:19;;;;;;;0.75;0.45;;;;;;;16.41;100.00;102160.84;10394582;28;20062;-81
2023/09/25 01:20:22;;;;;;;0.20;0.10;;;;;;;16.29;100.00;102157.97;10400852;28;20108;-82
2023/09/25 01:25:24;;;;;;;0.10;0.10;;;;;;;16.59;100.00;102156.88;10396988;28;20366;-82
2023/09/25 01:30:28;;;;;;;0.63;0.43;;;;;;;16.67;100.00;102159.66;10396729;28;20058;-82
2023/09/25 01:35:30;;;;;;;0.15;0.10;;;;;;;16.59;100.00;102154.28;10384328;28;20046;-82
2023/09/25 01:40:32;;;;;;;0.00;0.00;;;;;;;16.46;100.00;102159.22;10403810;28;20072;-81
2023/09/25 01:45:34;;;;;;;0.47;0.10;;;;;;;16.44;100.00;102160.03;10400915;28;20093;-82
2023/09/25 01:50:36;;;;;;;0.00;0.00;;;;;;;16.15;100.00;102148.13;10420319;28;20089;-82
2023/09/25 01:55:39;;;;;;;0.20;0.10;;;;;;;16.17;100.00;102150.75;10402627;28;20066;-82
2023/09/25 02:00:41;;;;;;;0.10;0.05;;;;;;;16.27;100.00;102152.75;10406547;28;20398;-82
2023/09/25 02:05:44;;;;;;;0.90;0.63;;;;;;;16.21;100.00;102149.09;10391030;28;20053;-82
2023/09/25 02:10:46;;;;;;;0.00;0.00;;;;;;;16.22;100.00;102148.28;10392401;28;20042;-82
2023/09/25 02:15:49;;;;;;;0.00;0.00;;;;;;;15.92;100.00;102150.22;10410866;28;20529;-82
2023/09/25 02:20:51;;;;;;;0.00;0.00;;;;;;;16.19;100.00;102143.88;10411979;28;20036;-82
2023/09/25 02:25:53;;;;;;;0.10;0.10;;;;;;;16.00;100.00;102137.38;10388844;28;20190;-82
2023/09/25 02:30:55;;;;;;;0.50;0.43;;;;;;;15.95;100.00;102139.00;10408179;28;20045;-82
2023/09/25 02:36:04;;;;;;;0.00;0.00;;;;;;;15.68;100.00;102140.06;10408615;28;20030;-82
2023/09/25 02:41:06;;;;;;;0.00;0.00;;;;;;;15.94;100.00;102132.03;10413171;28;20572;-82
2023/09/25 02:46:07;;;;;;;0.13;0.10;;;;;;;15.74;100.00;102137.63;10402759;28;20052;-82
2023/09/25 02:51:09;;;;;;;0.38;0.20;;;;;;;15.93;100.00;102136.38;10389051;28;20469;-81
2023/09/25 02:56:11;;;;;;;0.20;0.20;;;;;;;15.86;100.00;102140.53;10420885;28;20099;-82
2023/09/25 03:01:13;;;;;;;0.20;0.15;;;;;;;15.89;100.00;102139.72;10450902;28;20050;-83
2023/09/25 03:06:14;;;;;;;0.32;0.32;;;;;;;15.91;100.00;102132.88;10382310;28;20047;-81
2023/09/25 03:11:16;;;;;;;0.00;0.00;;;;;;;15.92;100.00;102136.31;10058983;29;20461;-82
2023/09/25 03:16:19;;;;;;;0.38;0.25;;;;;;;16.05;100.00;102129.69;10075182;29;20117;-82
2023/09/25 03:21:21;;;;;;;0.10;0.10;;;;;;;15.91;100.00;102137.16;10074771;29;20140;-82
2023/09/25 03:26:23;;;;;;;0.10;0.10;;;;;;;16.09;100.00;102135.00;10074820;29;20060;-82
2023/09/25 03:31:25;;;;;;;0.10;0.10;;;;;;;16.06;100.00;102132.31;10073364;29;20126;-82
2023/09/25 03:36:27;;;;;;;0.70;0.65;;;;;;;16.16;100.00;102134.28;10077793;29;20046;-82
2023/09/25 03:41:29;;;;;;;0.10;0.10;;;;;;;16.10;100.00;102139.38;10070204;29;20049;-82
2023/09/25 03:46:31;;;;;;;0.20;0.08;;;;;;;16.42;100.00;102146.13;10068648;29;20060;-83
2023/09/25 03:51:33;;;;;;;0.17;0.17;;;;;;;16.32;100.00;102145.03;10069613;29;20087;-83
2023/09/25 03:56:35;;;;;;;0.32;0.20;;;;;;;16.22;100.00;102137.88;10073177;29;20048;-82
2023/09/25 04:01:37;;;;;;;0.03;0.03;;;;;;;16.24;100.00;102142.25;10085907;29;20042;-82
2023/09/25 04:06:39;;;;;;;0.00;0.00;;;;;;;16.19;100.00;102133.47;10074098;29;20049;-80
2023/09/25 04:11:40;;;;;;;0.40;0.08;;;;;;;16.20;100.00;102134.34;10220186;29;20050;-82
2023/09/25 04:16:42;;;;;;;0.05;0.03;;;;;;;16.34;100.00;102138.16;10231591;29;20050;-82
2023/09/25 04:21:47;;;;;;;0.75;0.30;;;;;;;16.40;100.00;102138.28;10217759;29;20138;-82
2023/09/25 04:26:49;;;;;;;0.10;0.10;;;;;;;16.32;100.00;102134.63;10229114;29;20051;-82
2023/09/25 04:31:51;;;;;;;0.13;0.13;;;;;;;15.97;100.00;102150.31;10237391;29;20043;-82
2023/09/25 04:36:53;;;;;;;0.05;0.05;;;;;;;16.14;100.00;102140.31;10246199;29;20159;-81
2023/09/25 04:41:56;;;;;;;0.10;0.10;;;;;;;16.00;100.00;102150.38;10231140;29;20052;-83
2023/09/25 04:46:59;;;;;;;0.00;0.00;;;;;;;16.03;100.00;102132.28;10242539;29;20075;-81
2023/09/25 04:52:01;;;;;;;0.10;0.10;;;;;;;16.08;100.00;102125.44;10237071;29;20055;-82
2023/09/25 04:57:02;;;;;;;0.17;0.13;;;;;;;16.28;100.00;102130.19;10258754;28;20039;-81
2023/09/25 05:02:04;;;;;;;0.25;0.20;;;;;;;16.11;100.00;102133.31;10223193;29;20075;-81
2023/09/25 05:07:06;;;;;;;2.67;0.17;;;;;;;15.91;100.00;102142.34;10263153;28;20485;-82
2023/09/25 05:12:07;;;;;;;0.00;0.00;;;;;;;16.16;100.00;102141.19;10392671;28;20077;-82
2023/09/25 05:17:09;;;;;;;0.32;0.28;;;;;;;16.24;100.00;102137.06;10396742;28;20034;-82
2023/09/25 05:22:11;;;;;;;0.60;0.20;;;;;;;16.23;100.00;102140.53;10365043;28;20073;-82
2023/09/25 05:27:14;;;;;;;0.95;0.88;;;;;;;16.23;100.00;102134.44;10382106;28;20046;-83
2023/09/25 05:32:15;;;;;;;0.30;0.20;;;;;;;16.33;100.00;102136.41;10397528;28;20054;-82
2023/09/25 05:37:17;;;;;;;0.82;0.15;;;;;;;16.24;100.00;102128.38;10380009;28;20137;-82
2023/09/25 05:42:19;;;;;;;1.17;0.30;;;;;;;16.55;100.00;102134.25;10380776;28;20049;-81
2023/09/25 05:47:21;;;;;;;0.25;0.20;;;;;;;16.25;100.00;102138.81;10371915;28;20057;-81
2023/09/25 05:52:23;;;;;;;0.38;0.38;;;;;;;16.42;100.00;102139.19;10385268;28;20062;-82
2023/09/25 05:57:25;;;;;;;0.38;0.22;;;;;;;16.77;100.00;102141.66;10370004;28;20056;-82
2023/09/25 06:02:27;;;;;;;0.98;0.30;;;;;;;16.77;100.00;102152.06;10369241;28;20408;-82
2023/09/25 06:07:37;;;;;;;0.28;0.25;;;;;;;16.71;100.00;102154.53;10383140;28;20049;-82
2023/09/25 06:12:42;;;;;;;0.47;0.22;;;;;;;16.84;100.00;102160.00;10447549;28;20080;-82
2023/09/25 06:17:45;;;;;;;0.10;0.10;;;;;;;17.13;100.00;102168.38;10405348;28;20037;-82
2023/09/25 06:22:47;;;;;;;0.20;0.10;;;;;;;17.02;100.00;102175.97;10433519;28;20045;-83
2023/09/25 06:27:49;;;;;;;0.00;0.00;;;;;;;17.04;100.00;102171.69;10427572;28;20073;-82
2023/09/25 06:32:51;;;;;;;0.90;0.30;;;;;;;17.75;100.00;102174.69;10422812;28;20029;-82
2023/09/25 06:37:53;;;;;;;0.20;0.20;;;;;;;17.58;100.00;102177.88;10436040;28;20531;-82
2023/09/25 06:42:54;;;;;;;0.52;0.28;;;;;;;18.08;100.00;102179.59;10450397;28;20045;-81
2023/09/25 06:47:56;;;;;;;0.32;0.32;;;;;;;17.84;100.00;102167.03;10422659;28;20042;-83
2023/09/25 06:52:59;;;;;;;0.00;0.00;;;;;;;18.11;100.00;102167.44;10435786;28;20041;-82
2023/09/25 06:58:01;;;;;;;0.40;0.40;;;;;;;17.85;100.00;102170.50;10417204;28;20048;-82
2023/09/25 07:03:03;;;;;;;0.30;0.20;;;;;;;18.61;100.00;102175.09;10446013;28;20080;-81
2023/09/25 07:08:05;;;;;;;0.25;0.20;;;;;;;18.38;100.00;102165.22;10413185;28;20511;-82
2023/09/25 07:13:07;;;;;;;0.10;0.10;;;;;;;19.40;100.00;102172.53;10375513;28;20506;-83
2023/09/25 07:18:10;;;;;;;0.30;0.30;;;;;;;19.59;100.00;102178.75;10395645;28;20064;-82
2023/09/25 07:23:11;;;;;;;0.98;0.57;;;;;;;19.79;100.00;102168.47;10404343;28;20437;-82
2023/09/25 07:28:13;;;;;;;0.95;0.40;;;;;;;20.18;100.00;102159.19;10407784;28;20042;-83
2023/09/25 07:33:15;;;;;;;0.10;0.03;;;;;;;20.51;100.00;102156.72;10404863;28;20121;-82
2023/09/25 07:38:17;;;;;;;0.70;0.25;;;;;;;19.68;100.00;102170.16;10397570;28;20104;-84
2023/09/25 07:43:23;;;;;;;0.05;0.05;;;;;;;20.47;100.00;102162.84;10368468;28;20054;-82
2023/09/25 07:48:25;;;;;;;0.30;0.17;;;;;;;19.57;100.00;102163.06;10394330;28;20057;-83
2023/09/25 07:53:28;;;;;;;0.30;0.13;;;;;;;20.56;100.00;102161.13;10398762;28;20810;-84
2023/09/25 07:58:30;;;;;;;0.00;0.00;;;;;;;20.77;100.00;102165.59;10384669;28;20061;-83
2023/09/25 08:03:32;;;;;;;0.10;0.10;;;;;;;21.60;100.00;102166.63;10381949;28;20049;-83
2023/09/25 08:08:34;;;;;;;1.27;0.20;;;;;;;21.67;100.00;102168.38;10362519;28;20057;-83
2023/09/25 08:13:36;;;;;;;1.00;0.43;;;;;;;21.30;100.00;102170.09;10349764;28;20061;-84
2023/09/25 08:18:37;;;;;;;0.57;0.35;;;;;;;21.12;100.00;102160.47;10318658;28;20047;-84
2023/09/25 08:23:39;;;;;;;0.00;0.00;;;;;;;22.58;100.00;102161.22;10333704;28;20034;-83
2023/09/25 08:28:41;;;;;;;0.10;0.00;;;;;;;22.31;100.00;102161.28;10349602;28;20042;-83
2023/09/25 08:33:43;;;;;;;0.38;0.22;;;;;;;21.55;100.00;102164.00;10342942;28;20050;-83
2023/09/25 08:38:45;;;;;;;0.10;0.10;;;;;;;23.13;100.00;102171.41;10342355;28;20130;-84
2023/09/25 08:43:48;;;;;;;0.00;0.00;;;;;;;22.86;100.00;102175.09;10345281;28;20053;-83
2023/09/25 08:48:52;;;;;;;1.48;0.65;;;;;;;21.93;100.00;102174.50;10345457;28;20045;-83
2023/09/25 08:53:54;;;;;;;0.40;0.28;;;;;;;22.64;100.00;102161.19;10347010;28;20046;-84
2023/09/25 08:58:59;;;;;;;0.00;0.00;;;;;;;21.50;100.00;102168.34;10359235;28;20065;-85
2023/09/25 09:04:01;;;;;;;2.65;0.10;;;;;;;21.34;100.00;102156.09;10354346;28;20479;-83
2023/09/25 09:09:03;;;;;;;1.42;0.15;;;;;;;23.06;100.00;102164.47;10343692;28;20112;-83
2023/09/25 09:14:04;;;;;;;0.00;0.00;;;;;;;22.09;100.00;102146.47;10355258;28;20054;-83
2023/09/25 09:19:07;;;;;;;0.00;0.00;;;;;;;22.06;100.00;102150.00;10360048;28;20045;-84
2023/09/25 09:24:20;;;;;;;0.00;0.00;;;;;;;23.38;100.00;102155.50;10340716;28;20042;-84
2023/09/25 09:29:22;;;;;;;0.15;0.13;;;;;;;23.62;100.00;102153.56;10348323;28;20046;-84
2023/09/25 09:34:25;;;;;;;0.10;0.10;;;;;;;22.94;100.00;102149.63;10345451;28;20061;-84
2023/09/25 09:39:34;;;;;;;0.55;0.40;;;;;;;;;;10333964;28;20050;-84
2023/09/25 09:44:36;;;;;;;0.52;0.10;;;;;;;22.76;100.00;102140.09;10352479;28;20114;-84
2023/09/25 09:49:41;;;;;;;0.05;0.05;;;;;;;23.36;100.00;102135.38;10323421;28;20058;-83
2023/09/25 09:54:47;;;;;;;1.40;0.15;;;;;;;23.32;100.00;102134.53;10335335;28;20046;-84
2023/09/25 09:59:49;;;;;;;0.50;0.20;;;;;;;22.42;100.00;102131.50;10339587;28;20047;-83
2023/09/25 10:04:50;;;;;;;0.00;0.00;;;;;;;23.65;100.00;102140.38;10351032;28;20057;-84
2023/09/25 10:09:58;;;;;;;0.10;0.00;;;;;;;23.67;100.00;102143.88;10350489;28;20042;-84
2023/09/25 10:15:04;;;;;;;0.43;0.35;;;;;;;24.20;100.00;102148.63;10351962;28;20518;-83
2023/09/25 10:20:26;;;;;;;0.20;0.10;;;;;;;23.83;100.00;102157.75;10349520;28;20046;-84
2023/09/25 10:25:31;;;;;;;0.20;0.10;;;;;;;24.18;100.00;102147.75;10336074;28;20726;-83
2023/09/25 10:30:34;;;;;;;0.45;0.32;;;;;;;23.70;100.00;102153.50;10332996;28;20614;-83
2023/09/25 10:35:40;;;;;;;0.00;0.00;;;;;;;24.10;100.00;102149.59;10335535;28;20235;-83
2023/09/25 10:40:49;;;;;;;0.28;0.20;;;;;;;23.34;100.00;102153.81;10330289;28;20050;-84
2023/09/25 10:45:54;;;;;;;0.10;0.10;;;;;;;23.36;100.00;102151.16;10350480;28;20062;-84
2023/09/25 10:50:56;;;;;;;0.00;0.00;;;;;;;23.70;100.00;102143.84;10331060;28;20121;-85
2023/09/25 10:55:58;;;;;;;0.00;0.00;;;;;;;23.99;100.00;102147.97;10347328;28;20409;-84
2023/09/25 11:01:02;;;;;;;12.32;0.28;;;;;;;24.14;100.00;102140.81;10329141;28;20070;-83
2023/09/25 11:06:08;;;;;;;0.17;0.17;;;;;;;24.54;100.00;102142.94;10329997;28;20514;-83
2023/09/25 11:11:13;;;;;;;0.55;0.20;;;;;;;24.35;100.00;102130.00;10340525;28;20042;-84
2023/09/25 11:16:17;;;;;;;0.10;0.10;;;;;;;24.17;100.00;102135.47;10348141;28;20050;-83
2023/09/25 11:21:19;;;;;;;0.10;0.10;;;;;;;24.70;100.00;102133.97;10330955;28;20048;-83
2023/09/25 11:26:25;;;;;;;0.77;0.17;;;;;;;24.20;100.00;102144.22;10316223;28;20046;-82
2023/09/25 11:31:26;;;;;;;0.00;0.00;;;;;;;24.23;100.00;102130.16;10332858;28;20134;-82
2023/09/25 11:36:30;;;;;;;0.00;0.00;;;;;;;24.73;100.00;102132.19;10331862;28;20060;-83
2023/09/25 11:41:32;;;;;;;0.20;0.13;;;;;;;24.89;100.00;102131.09;10331785;28;20046;-83
2023/09/25 11:46:33;;;;;;;0.00;0.00;;;;;;;25.36;100.00;102139.16;10320820;28;20506;-82
2023/09/25 11:51:35;;;;;;;0.55;0.30;;;;;;;24.92;100.00;102136.28;10344182;28;20535;-84
2023/09/25 11:56:37;;;;;;;0.00;0.00;;;;;;;24.80;100.00;102141.75;10336157;28;20055;-82
2023/09/25 12:01:39;;;;;;;0.00;0.00;;;;;;;25.24;100.00;102153.41;10330042;28;20871;-83
2023/09/25 12:06:42;;;;;;;0.00;0.00;;;;;;;25.27;100.00;102147.19;10344072;28;20055;-83
2023/09/25 12:11:44;;;;;;;0.00;0.00;;;;;;;26.16;100.00;102149.19;10330565;28;20046;-84
2023/09/25 12:16:46;;;;;;;0.10;0.05;;;;;;;25.54;100.00;102150.31;10329621;28;20051;-82
2023/09/25 12:21:48;;;;;;;0.00;0.00;;;;;;;25.63;100.00;102155.41;10345247;28;20549;-82
2023/09/25 12:26:50;;;;;;;0.00;0.00;;;;;;;25.84;100.00;102154.16;10334999;28;20105;-83
2023/09/25 12:31:51;;;;;;;0.28;0.17;;;;;;;25.18;100.00;102158.78;10334867;28;20050;-83
2023/09/25 12:36:53;;;;;;;0.00;0.00;;;;;;;26.41;100.00;102157.50;10321484;28;20049;-82
2023/09/25 12:41:55;;;;;;;0.00;0.00;;;;;;;26.07;100.00;102155.50;10330069;28;20058;-83
2023/09/25 12:47:09;;;;;;;0.10;0.10;;;;;;;25.29;100.00;102167.38;10332890;28;20312;-84
2023/09/25 12:52:11;;;;;;;0.28;0.28;;;;;;;24.84;100.00;102164.53;10333726;28;20410;-83
2023/09/25 12:57:13;;;;;;;0.00;0.00;;;;;;;25.05;100.00;102171.25;10330840;28;20478;-81
2023/09/25 13:02:14;;;;;;;2.55;0.70;;;;;;;25.90;100.00;102169.91;10340040;28;20080;-82
2023/09/25 13:07:16;;;;;;;0.17;0.10;;;;;;;25.12;100.00;102177.34;10330111;28;20050;-83
2023/09/25 13:12:18;;;;;;;0.00;0.00;;;;;;;25.26;100.00;102170.06;10345513;28;20051;-83
2023/09/25 13:17:19;;;;;;;0.15;0.15;;;;;;;24.82;100.00;102166.34;10333670;28;20074;-82
2023/09/25 13:22:21;;;;;;;0.17;0.15;;;;;;;24.80;100.00;102162.84;10337376;28;20458;-82
2023/09/25 13:27:38;;;;;;;0.10;0.10;;;;;;;25.84;100.00;102170.00;10324394;28;20114;-83
2023/09/25 13:32:40;;;;;;;0.00;0.00;;;;;;;25.97;100.00;102168.03;10337285;28;20137;-83
2023/09/25 13:37:42;;;;;;;0.10;0.10;;;;;;;25.65;100.00;102154.50;10336125;28;20043;-83
2023/09/25 13:42:44;;;;;;;0.00;0.00;;;;;;;26.24;100.00;102164.00;10336827;28;20073;-82
2023/09/25 13:47:46;;;;;;;0.00;0.00;;;;;;;25.47;100.00;102165.38;10336058;28;20077;-82
2023/09/25 13:52:48;;;;;;;0.20;0.20;;;;;;;25.63;100.00;102166.88;10333050;28;20042;-83
2023/09/25 13:57:50;;;;;;;1.58;0.15;;;;;;;25.82;100.00;102166.53;10318328;28;20043;-83
2023/09/25 14:02:51;;;;;;;0.00;0.00;;;;;;;25.98;100.00;102156.56;10334730;28;20046;-83
2023/09/25 14:07:53;;;;;;;0.30;0.10;;;;;;;25.86;100.00;102157.66;10315889;28;20053;-83
2023/09/25 14:12:55;;;;;;;0.15;0.10;;;;;;;25.74;100.00;102149.94;10349956;28;20482;-82
2023/09/25 14:17:56;;;;;;;0.20;0.20;;;;;;;26.12;100.00;102129.91;10317497;28;20059;-82
2023/09/25 14:23:00;;;;;;;0.20;0.20;;;;;;;26.03;100.00;102125.66;10316624;28;20054;-82
2023/09/25 14:28:01;;;;;;;0.55;0.15;;;;;;;24.92;100.00;102138.94;10315334;28;20053;-83
2023/09/25 14:33:04;;;;;;;0.00;0.00;;;;;;;25.19;100.00;102126.25;10348332;28;20046;-83
2023/09/25 14:38:05;;;;;;;0.30;0.10;;;;;;;25.33;100.00;102134.78;10332569;28;20042;-82
2023/09/25 14:43:07;;;;;;;0.28;0.15;;;;;;;26.03;100.00;102132.69;10315159;28;20058;-82
2023/09/25 14:48:09;;;;;;;0.00;0.00;;;;;;;26.20;100.00;102135.91;10330782;28;20047;-82
2023/09/25 14:53:11;;;;;;;0.00;0.00;;;;;;;25.99;100.00;102137.16;10345097;28;20050;-82
2023/09/25 14:58:12;;;;;;;0.10;0.05;;;;;;;25.85;100.00;102139.19;10327402;28;20057;-82
2023/09/25 15:03:14;;;;;;;0.20;0.10;;;;;;;25.60;100.00;102145.78;10326143;28;20058;-83
2023/09/25 15:08:16;;;;;;;0.00;0.00;;;;;;;25.46;100.00;102143.41;10347487;28;20055;-83
2023/09/25 15:13:18;;;;;;;0.22;0.10;;;;;;;25.26;100.00;102141.06;10328208;28;20093;-83
2023/09/25 15:18:20;;;;;;;0.17;0.08;;;;;;;25.48;100.00;102138.09;10344228;28;20375;-83
2023/09/25 15:23:21;;;;;;;0.10;0.10;;;;;;;25.00;100.00;102138.84;10327439;28;20577;-84
2023/09/25 15:28:23;;;;;;;0.47;0.28;;;;;;;25.24;100.00;102137.56;10345714;28;20414;-83
2023/09/25 15:33:25;;;;;;;0.00;0.00;;;;;;;25.56;100.00;102146.75;10341861;28;20387;-83
2023/09/25 15:38:26;;;;;;;0.00;0.00;;;;;;;25.21;100.00;102145.53;10307824;28;20050;-83
2023/09/25 15:43:28;;;;;;;0.52;0.52;;;;;;;25.13;100.00;102136.88;10347971;28;20109;-83
2023/09/25 15:48:30;;;;;;;0.90;0.20;;;;;;;25.30;100.00;102140.09;10347535;28;20134;-83
2023/09/25 15:53:32;;;;;;;0.00;0.00;;;;;;;25.25;100.00;102144.59;10336096;28;20042;-83
2023/09/25 15:58:33;;;;;;;0.22;0.10;;;;;;;25.56;100.00;102133.56;10347545;28;20042;-83
2023/09/25 16:03:37;;;;;;;0.60;0.20;;;;;;;25.96;100.00;102153.94;10357577;28;20046;-83
2023/09/25 16:08:39;;;;;;;0.50;0.32;;;;;;;26.18;100.00;102150.03;10339156;28;21062;-83
2023/09/25 16:13:41;;;;;;;0.10;0.10;;;;;;;25.53;100.00;102160.00;10339678;28;20114;-83
2023/09/25 16:18:43;;;;;;;0.20;0.20;;;;;;;25.11;100.00;102149.22;10355635;28;20047;-83
2023/09/25 16:23:44;;;;;;;0.00;0.00;;;;;;;25.34;100.00;102155.00;10336463;28;20101;-83
2023/09/25 16:28:46;;;;;;;0.10;0.10;;;;;;;25.08;100.00;102149.25;10336665;28;20046;-82
2023/09/25 16:33:48;;;;;;;0.00;0.00;;;;;;;25.74;100.00;102153.47;10354744;28;20100;-82
2023/09/25 16:38:50;;;;;;;0.08;0.00;;;;;;;25.13;100.00;102168.53;10338549;28;20601;-82
2023/09/25 16:43:53;;;;;;;1.33;0.38;;;;;;;25.15;100.00;102175.53;10336908;28;20117;-83
2023/09/25 16:48:54;;;;;;;0.00;0.00;;;;;;;25.68;100.00;102179.09;10350160;28;20047;-82
2023/09/25 16:53:56;;;;;;;0.00;0.00;;;;;;;25.01;100.00;102173.06;10343238;28;20509;-82
2023/09/25 16:58:58;;;;;;;0.00;0.00;;;;;;;24.59;100.00;102183.28;10357316;28;20058;-82
2023/09/25 17:04:00;;;;;;;0.00;0.00;;;;;;;24.93;100.00;102180.22;10343279;28;20054;-82
2023/09/25 17:09:02;;;;;;;0.55;0.10;;;;;;;23.98;100.00;102177.81;10327669;28;20129;-82
2023/09/25 17:14:05;;;;;;;0.25;0.00;;;;;;;24.20;100.00;102172.31;10343601;28;20064;-83
2023/09/25 17:19:07;;;;;;;0.08;0.08;;;;;;;23.82;100.00;102176.19;10348564;28;20117;-82
2023/09/25 17:24:09;;;;;;;0.00;0.00;;;;;;;23.18;100.00;102183.72;10366794;28;20061;-82
2023/09/25 17:29:10;;;;;;;0.00;0.00;;;;;;;22.50;100.00;102187.50;10371944;28;20053;-82
2023/09/25 17:34:12;;;;;;;0.32;0.17;;;;;;;22.51;100.00;102186.63;10373072;28;20050;-82
2023/09/25 17:39:14;;;;;;;0.00;0.00;;;;;;;22.60;100.00;102191.84;10369270;28;20089;-82
2023/09/25 17:44:15;;;;;;;0.00;0.00;;;;;;;22.38;100.00;102195.41;10372868;28;20051;-82
2023/09/25 17:49:17;;;;;;;0.00;0.00;;;;;;;22.33;100.00;102193.66;10364288;28;20051;-82
2023/09/25 17:54:18;;;;;;;0.28;0.00;;;;;;;21.99;100.00;102203.34;10352580;28;20082;-82
2023/09/25 17:59:20;;;;;;;0.00;0.00;;;;;;;22.14;100.00;102205.06;10348101;28;20500;-82
2023/09/25 18:04:22;;;;;;;0.00;0.00;;;;;;;21.71;100.00;102213.84;10357862;28;20056;-82
2023/09/25 18:09:24;;;;;;;0.00;0.00;;;;;;;21.42;100.00;102211.19;10331516;28;20046;-82
2023/09/25 18:14:26;;;;;;;0.00;0.00;;;;;;;21.24;100.00;102207.63;10366370;28;20046;-82
2023/09/25 18:19:28;;;;;;;0.10;0.10;;;;;;;21.13;100.00;102220.72;10373757;28;20089;-81
2023/09/25 18:24:30;;;;;;;0.00;0.00;;;;;;;20.87;100.00;102216.28;10372401;28;20078;-82
2023/09/25 18:29:35;;;;;;;0.00;0.00;;;;;;;20.63;100.00;102216.13;10355366;28;20489;-81
2023/09/25 18:34:38;;;;;;;0.00;0.00;;;;;;;20.63;100.00;102216.13;10359265;28;20561;-81
2023/09/25 18:39:39;;;;;;;0.25;0.00;;;;;;;20.19;100.00;102231.59;10365270;28;20669;-81
2023/09/25 18:44:41;;;;;;;0.00;0.00;;;;;;;20.03;100.00;102234.94;10360067;28;20101;-81
2023/09/25 18:49:43;;;;;;;0.00;0.00;;;;;;;20.10;100.00;102218.44;10344046;28;20768;-81
2023/09/25 18:54:44;;;;;;;0.00;0.00;;;;;;;20.12;100.00;102224.56;10385579;28;20030;-81
2023/09/25 18:59:46;;;;;;;0.00;0.00;;;;;;;20.00;100.00;102216.59;10353187;28;20046;-81
2023/09/25 19:04:48;;;;;;;0.00;0.00;;;;;;;19.45;100.00;102217.88;10369578;28;20101;-81
2023/09/25 19:09:53;;;;;;;0.00;0.00;;;;;;;19.60;100.00;102223.25;10371243;28;20042;-81
2023/09/25 19:14:55;;;;;;;0.08;0.00;;;;;;;19.26;100.00;102225.50;10367630;28;20042;-81
2023/09/25 19:19:57;;;;;;;0.00;0.00;;;;;;;19.50;100.00;102218.78;10385340;28;20042;-81
2023/09/25 19:24:58;;;;;;;0.00;0.00;;;;;;;19.07;100.00;102221.78;10385064;28;20126;-81
2023/09/25 19:30:00;;;;;;;0.00;0.00;;;;;;;19.12;100.00;102214.91;10362361;28;20199;-81
2023/09/25 19:35:02;;;;;;;0.00;0.00;;;;;;;19.18;100.00;102221.91;10383112;28;20133;-81
2023/09/25 19:40:05;;;;;;;0.00;0.00;;;;;;;19.09;100.00;102216.63;10360261;28;20365;-81
2023/09/25 19:45:07;;;;;;;0.00;0.00;;;;;;;19.19;100.00;102221.06;10345066;28;20061;-81
2023/09/25 19:50:09;;;;;;;0.00;0.00;;;;;;;18.96;100.00;102218.19;10367419;28;20078;-81
2023/09/25 19:55:12;;;;;;;0.30;0.00;;;;;;;18.91;100.00;102225.06;10382323;28;20058;-81
2023/09/25 20:00:14;;;;;;;0.10;0.03;;;;;;;18.89;100.00;102214.59;10368522;28;20102;-81
2023/09/25 20:05:17;;;;;;;0.20;0.20;;;;;;;18.86;100.00;102219.78;10367745;28;20124;-81
2023/09/25 20:10:21;;;;;;;0.00;0.00;;;;;;;18.85;100.00;102215.41;10379477;28;20118;-81
2023/09/25 20:15:23;;;;;;;0.00;0.00;;;;;;;18.45;100.00;102214.88;10361647;28;20057;-81
2023/09/25 20:20:25;;;;;;;0.10;0.00;;;;;;;18.18;100.00;102216.25;10336054;28;20050;-81
2023/09/25 20:25:26;;;;;;;0.00;0.00;;;;;;;18.07;100.00;102214.34;10354740;28;20114;-81
2023/09/25 20:30:28;;;;;;;0.22;0.10;;;;;;;18.23;100.00;102214.56;10356934;28;20137;-81
2023/09/25 20:35:30;;;;;;;0.00;0.00;;;;;;;18.04;100.00;102224.72;10377227;28;20053;-81
2023/09/25 20:40:31;;;;;;;0.00;0.00;;;;;;;18.26;100.00;102225.06;10364792;28;20050;-81
2023/09/25 20:45:33;;;;;;;0.30;0.05;;;;;;;18.48;100.00;102209.72;10367045;28;20046;-81
2023/09/25 20:50:35;;;;;;;0.08;0.00;;;;;;;18.25;100.00;102212.88;10345529;28;20037;-81
2023/09/25 20:55:36;;;;;;;0.00;0.00;;;;;;;18.33;100.00;102213.88;10358719;28;20383;-81
2023/09/25 21:00:38;;;;;;;0.00;0.00;;;;;;;18.34;100.00;102218.22;10377865;28;20513;-81
2023/09/25 21:05:40;;;;;;;0.08;0.08;;;;;;;18.08;100.00;102204.81;10359789;28;20074;-81
2023/09/25 21:10:42;;;;;;;0.00;0.00;;;;;;;17.92;100.00;102211.44;10356183;28;20042;-81
2023/09/25 21:15:43;;;;;;;0.00;0.00;;;;;;;18.14;100.00;102209.22;10376643;28;20081;-81
2023/09/25 21:20:46;;;;;;;0.00;0.00;;;;;;;18.05;100.00;102199.53;10368270;28;20414;-81
2023/09/25 21:25:48;;;;;;;0.25;0.17;;;;;;;17.77;100.00;102206.88;10375224;28;20048;-81
2023/09/25 21:30:50;;;;;;;0.00;0.00;;;;;;;17.54;100.00;102206.44;10359362;28;20502;-81
2023/09/25 21:35:52;;;;;;;0.00;0.00;;;;;;;17.22;100.00;102211.97;10353987;28;20066;-81
2023/09/25 21:40:53;;;;;;;0.00;0.00;;;;;;;17.20;100.00;102195.44;10330737;28;20055;-81
2023/09/25 21:45:55;;;;;;;0.00;0.00;;;;;;;17.18;100.00;102199.72;10364689;28;20050;-81
2023/09/25 21:50:58;;;;;;;0.00;0.00;;;;;;;16.86;100.00;102189.53;10345509;28;20081;-81
2023/09/25 21:56:01;;;;;;;0.05;0.05;;;;;;;16.99;100.00;102201.09;10367509;28;20042;-81
2023/09/25 22:01:03;;;;;;;0.45;0.43;;;;;;;17.15;100.00;102197.94;10358513;28;20224;-81
2023/09/25 22:06:05;;;;;;;0.17;0.10;;;;;;;17.18;100.00;102194.50;10358156;28;20054;-81
2023/09/25 22:11:08;;;;;;;0.03;0.00;;;;;;;17.34;100.00;102198.31;10356129;28;20046;-81
2023/09/25 22:16:09;;;;;;;0.22;0.05;;;;;;;16.74;100.00;102196.22;10370689;28;20046;-81
2023/09/25 22:21:14;;;;;;;0.52;0.20;;;;;;;16.95;100.00;102190.63;10351223;28;20038;-81
2023/09/25 22:26:16;;;;;;;0.00;0.00;;;;;;;16.63;100.00;102185.59;10347239;28;20046;-81
2023/09/25 22:31:19;;;;;;;0.25;0.15;;;;;;;17.04;100.00;102189.91;10356328;28;20074;-81
2023/09/25 22:36:21;;;;;;;0.00;0.00;;;;;;;16.60;100.00;102192.44;10355221;28;20058;-81
2023/09/25 22:41:23;;;;;;;0.00;0.00;;;;;;;16.77;100.00;102191.09;10347062;28;20057;-81
2023/09/25 22:46:24;;;;;;;0.00;0.00;;;;;;;16.37;100.00;102185.03;10373276;28;20402;-80
2023/09/25 22:51:26;;;;;;;0.20;0.10;;;;;;;17.02;100.00;102191.59;10332801;28;20493;-80
2023/09/25 22:56:29;;;;;;;0.35;0.30;;;;;;;17.08;100.00;102191.75;10344480;28;20593;-81